createdAt,value
2022-08-19T00:00:32.203Z,75.14
2022-08-19T00:01:32.224Z,75.04
2022-08-19T00:02:33.223Z,75.04
2022-08-19T00:03:32.174Z,75.04
2022-08-19T00:04:32.243Z,75.04
2022-08-19T00:05:32.148Z,74.94
2022-08-19T00:06:32.144Z,74.94
2022-08-19T00:07:32.126Z,75.04
2022-08-19T00:08:32.093Z,74.94
2022-08-19T00:09:32.076Z,75.04
2022-08-19T00:10:32.073Z,74.94
2022-08-19T00:11:32.058Z,74.94
2022-08-19T00:12:32.057Z,74.84
2022-08-19T00:13:32.026Z,74.94
2022-08-19T00:14:32.028Z,74.74
2022-08-19T00:15:32.018Z,74.74
2022-08-19T00:16:31.987Z,74.74
2022-08-19T00:17:31.977Z,74.54
2022-08-19T00:18:31.976Z,74.54
2022-08-19T00:19:31.948Z,74.54
2022-08-19T00:20:31.938Z,74.54
2022-08-19T00:21:31.928Z,74.34
2022-08-19T00:22:31.918Z,74.30
2022-08-19T00:23:31.925Z,74.30
2022-08-19T00:24:31.896Z,74.30
2022-08-19T00:25:31.870Z,74.30
2022-08-19T00:26:31.860Z,74.30
2022-08-19T00:27:31.850Z,74.40
2022-08-19T00:28:31.857Z,74.51
2022-08-19T00:29:31.826Z,74.51
2022-08-19T00:30:31.811Z,74.60
2022-08-19T00:31:31.788Z,74.71
2022-08-19T00:32:31.779Z,74.71
2022-08-19T00:33:31.778Z,74.71
2022-08-19T00:34:31.749Z,74.80
2022-08-19T00:35:31.740Z,74.90
2022-08-19T00:36:31.731Z,74.90
2022-08-19T00:37:31.708Z,74.90
2022-08-19T00:38:37.156Z,74.90
2022-08-19T00:39:32.741Z,74.94
2022-08-19T00:40:31.671Z,74.90
2022-08-19T00:41:31.664Z,75.04
2022-08-19T00:42:31.651Z,75.14
2022-08-19T00:43:31.651Z,75.24
2022-08-19T00:44:31.621Z,75.24
2022-08-19T00:45:31.601Z,75.34
2022-08-19T00:46:31.599Z,75.34
2022-08-19T00:47:31.581Z,75.34
2022-08-19T00:48:31.591Z,75.54
2022-08-19T00:49:31.551Z,75.64
2022-08-19T00:50:31.542Z,75.84
2022-08-19T00:51:31.533Z,75.84
2022-08-19T00:52:31.522Z,75.84
2022-08-19T00:53:31.521Z,75.95
2022-08-19T00:54:31.491Z,75.74
2022-08-19T00:55:31.475Z,75.45
2022-08-19T00:56:31.502Z,75.45
2022-08-19T00:57:31.738Z,75.14
2022-08-19T00:58:31.454Z,74.94
2022-08-19T00:59:59.450Z,75.04
2022-08-19T01:00:32.413Z,75.24
2022-08-19T01:01:31.415Z,75.04
2022-08-19T01:02:31.382Z,74.94
2022-08-19T01:03:57.150Z,75.04
2022-08-19T01:04:32.353Z,74.84
2022-08-19T01:05:31.344Z,74.64
2022-08-19T01:06:31.334Z,74.64
2022-08-19T01:07:35.703Z,74.74
2022-08-19T01:08:32.322Z,74.84
2022-08-19T01:09:31.284Z,74.84
2022-08-19T01:10:36.079Z,74.94
2022-08-19T01:11:32.303Z,74.94
2022-08-19T01:12:31.248Z,74.84
2022-08-19T01:13:44.467Z,74.54
2022-08-19T01:14:32.243Z,74.44
2022-08-19T01:15:31.217Z,74.64
2022-08-19T01:16:31.209Z,74.74
2022-08-19T01:17:31.204Z,75.04
2022-08-19T01:18:31.215Z,75.04
2022-08-19T01:19:31.167Z,75.04
2022-08-19T01:20:32.157Z,74.44
2022-08-19T01:21:31.137Z,74.44
2022-08-19T01:22:33.697Z,74.71
2022-08-19T01:23:31.138Z,74.71
2022-08-19T01:24:31.098Z,74.80
2022-08-19T01:25:31.089Z,74.90
2022-08-19T01:26:31.246Z,74.80
2022-08-19T01:27:35.385Z,74.80
2022-08-19T01:28:33.957Z,74.71
2022-08-19T01:29:31.039Z,74.80
2022-08-19T01:30:31.018Z,74.80
2022-08-19T01:31:31.008Z,74.94
2022-08-19T01:32:33.997Z,75.04
2022-08-19T01:33:30.979Z,75.04
2022-08-19T01:34:30.987Z,75.24
2022-08-19T01:35:30.960Z,75.34
2022-08-19T01:36:30.947Z,75.45
2022-08-19T01:37:30.933Z,75.45
2022-08-19T01:38:30.918Z,75.64
2022-08-19T01:39:30.955Z,75.74
2022-08-19T01:40:30.889Z,75.98
2022-08-19T01:41:30.870Z,76.08
2022-08-19T01:42:30.859Z,76.08
2022-08-19T01:43:30.900Z,75.78
2022-08-19T01:44:30.847Z,75.48
2022-08-19T01:45:30.823Z,75.58
2022-08-19T01:46:30.800Z,75.48
2022-08-19T01:47:30.801Z,75.38
2022-08-19T01:48:30.770Z,75.14
2022-08-19T01:49:30.791Z,75.04
2022-08-19T01:50:30.746Z,75.04
2022-08-19T01:51:30.751Z,74.94
2022-08-19T01:52:31.731Z,74.84
2022-08-19T01:53:30.722Z,74.94
2022-08-19T01:54:30.730Z,75.14
2022-08-19T01:55:30.693Z,74.94
2022-08-19T01:56:30.672Z,74.74
2022-08-19T01:57:30.675Z,74.74
2022-08-19T01:58:30.663Z,74.94
2022-08-19T01:59:30.644Z,74.94
2022-08-19T02:00:30.621Z,74.94
2022-08-19T02:01:31.363Z,74.94
2022-08-19T02:02:30.600Z,74.74
2022-08-19T02:03:30.603Z,74.84
2022-08-19T02:04:30.572Z,74.94
2022-08-19T02:05:30.562Z,75.14
2022-08-19T02:06:30.541Z,75.04
2022-08-19T02:07:30.531Z,74.94
2022-08-19T02:08:30.523Z,74.94
2022-08-19T02:09:30.504Z,74.94
2022-08-19T02:10:30.484Z,75.04
2022-08-19T02:11:30.481Z,74.84
2022-08-19T02:12:30.454Z,75.04
2022-08-19T02:13:30.471Z,75.14
2022-08-19T02:14:30.434Z,74.84
2022-08-19T02:15:30.424Z,74.84
2022-08-19T02:16:30.405Z,74.84
2022-08-19T02:17:30.404Z,74.94
2022-08-19T02:18:30.394Z,75.14
2022-08-19T02:19:30.373Z,75.24
2022-08-19T02:20:30.355Z,75.04
2022-08-19T02:21:30.347Z,75.04
2022-08-19T02:22:30.326Z,75.24
2022-08-19T02:23:30.334Z,75.24
2022-08-19T02:24:30.306Z,75.14
2022-08-19T02:25:30.286Z,75.14
2022-08-19T02:26:30.275Z,75.14
2022-08-19T02:27:30.274Z,75.34
2022-08-19T02:28:30.266Z,75.34
2022-08-19T02:29:30.236Z,75.45
2022-08-19T02:30:30.216Z,75.54
2022-08-19T02:31:30.196Z,75.74
2022-08-19T02:32:30.186Z,75.64
2022-08-19T02:33:30.200Z,75.68
2022-08-19T02:34:30.166Z,75.88
2022-08-19T02:35:30.164Z,75.78
2022-08-19T02:36:30.309Z,75.78
2022-08-19T02:37:30.127Z,75.98
2022-08-19T02:38:31.128Z,75.98
2022-08-19T02:39:30.145Z,75.88
2022-08-19T02:40:30.089Z,76.08
2022-08-19T02:41:30.077Z,75.98
2022-08-19T02:42:30.059Z,75.98
2022-08-19T02:43:33.926Z,76.08
2022-08-19T02:44:32.024Z,76.28
2022-08-19T02:45:30.018Z,76.28
2022-08-19T02:46:30.000Z,76.38
2022-08-19T02:47:29.998Z,76.58
2022-08-19T02:48:30.000Z,76.72
2022-08-19T02:49:29.968Z,76.92
2022-08-19T02:50:29.961Z,77.02
2022-08-19T02:51:29.938Z,77.02
2022-08-19T02:52:29.930Z,77.12
2022-08-19T02:53:29.939Z,77.12
2022-08-19T02:54:29.907Z,77.12
2022-08-19T02:55:29.890Z,77.16
2022-08-19T02:56:29.874Z,77.26
2022-08-19T02:57:29.861Z,77.36
2022-08-19T02:58:29.859Z,77.46
2022-08-19T02:59:29.851Z,77.76
2022-08-19T03:00:29.817Z,77.86
2022-08-19T03:01:29.863Z,78.06
2022-08-19T03:02:29.782Z,78.10
2022-08-19T03:03:29.817Z,78.20
2022-08-19T03:04:29.761Z,78.30
2022-08-19T03:05:47.003Z,78.20
2022-08-19T03:06:30.731Z,78.30
2022-08-19T03:07:29.730Z,78.30
2022-08-19T03:08:29.742Z,78.50
2022-08-19T03:09:29.700Z,78.44
2022-08-19T03:10:29.700Z,78.64
2022-08-19T03:11:29.679Z,78.74
2022-08-19T03:12:29.657Z,78.84
2022-08-19T03:13:29.670Z,79.04
2022-08-19T03:14:29.631Z,79.14
2022-08-19T03:15:29.651Z,79.14
2022-08-19T03:16:29.603Z,79.14
2022-08-19T03:17:29.602Z,79.24
2022-08-19T03:18:29.594Z,79.24
2022-08-19T03:19:29.563Z,79.24
2022-08-19T03:20:29.543Z,79.35
2022-08-19T03:21:29.542Z,79.35
2022-08-19T03:22:29.525Z,79.24
2022-08-19T03:23:29.532Z,79.35
2022-08-19T03:24:29.501Z,79.44
2022-08-19T03:25:29.485Z,79.44
2022-08-19T03:26:29.463Z,79.64
2022-08-19T03:27:34.206Z,79.64
2022-08-19T03:28:30.453Z,79.64
2022-08-19T03:29:30.604Z,79.64
2022-08-19T03:30:29.434Z,79.74
2022-08-19T03:31:41.778Z,79.79
2022-08-19T03:32:32.872Z,79.79
2022-08-19T03:33:29.409Z,79.79
2022-08-19T03:34:29.364Z,79.79
2022-08-19T03:35:29.364Z,79.79
2022-08-19T03:36:29.681Z,79.99
2022-08-19T03:37:29.324Z,79.99
2022-08-19T03:38:29.326Z,80.08
2022-08-19T03:39:29.362Z,80.29
2022-08-19T03:40:29.277Z,80.49
2022-08-19T03:41:34.196Z,80.63
2022-08-19T03:42:38.928Z,80.63
2022-08-19T03:43:30.257Z,80.73
2022-08-19T03:44:29.225Z,80.73
2022-08-19T03:45:29.216Z,80.73
2022-08-19T03:46:29.195Z,80.73
2022-08-19T03:47:29.187Z,80.83
2022-08-19T03:48:29.197Z,80.93
2022-08-19T03:49:29.178Z,80.93
2022-08-19T03:50:29.166Z,81.03
2022-08-19T03:51:30.840Z,81.17
2022-08-19T03:52:29.127Z,81.27
2022-08-19T03:53:29.126Z,81.47
2022-08-19T03:54:29.097Z,81.37
2022-08-19T03:55:29.077Z,81.27
2022-08-19T03:56:29.077Z,81.41
2022-08-19T03:57:31.727Z,81.61
2022-08-19T03:58:29.057Z,81.81
2022-08-19T03:59:29.044Z,81.91
2022-08-19T04:00:29.017Z,81.91
2022-08-19T04:01:30.393Z,81.91
2022-08-19T04:02:29.987Z,82.11
2022-08-19T04:03:28.997Z,82.21
2022-08-19T04:04:29.474Z,82.21
2022-08-19T04:05:28.949Z,82.11
2022-08-19T04:06:28.926Z,82.01
2022-08-19T04:07:28.918Z,81.87
2022-08-19T04:08:28.929Z,81.77
2022-08-19T04:09:28.898Z,81.77
2022-08-19T04:10:28.879Z,81.67
2022-08-19T04:11:43.508Z,81.47
2022-08-19T04:12:29.848Z,81.57
2022-08-19T04:13:28.859Z,81.57
2022-08-19T04:14:28.818Z,81.67
2022-08-19T04:15:28.809Z,81.67
2022-08-19T04:16:35.103Z,81.57
2022-08-19T04:17:29.779Z,81.47
2022-08-19T04:18:28.789Z,81.47
2022-08-19T04:19:28.759Z,81.47
2022-08-19T04:20:28.741Z,81.37
2022-08-19T04:21:28.729Z,81.47
2022-08-19T04:22:28.791Z,81.37
2022-08-19T04:23:28.721Z,81.57
2022-08-19T04:24:28.689Z,81.77
2022-08-19T04:25:28.680Z,81.87
2022-08-19T04:26:28.679Z,81.77
2022-08-19T04:27:28.650Z,81.77
2022-08-19T04:28:28.650Z,81.77
2022-08-19T04:29:28.628Z,81.67
2022-08-19T04:30:28.600Z,81.47
2022-08-19T04:31:28.594Z,81.57
2022-08-19T04:32:28.580Z,81.47
2022-08-19T04:33:28.823Z,81.47
2022-08-19T04:34:28.565Z,81.47
2022-08-19T04:35:28.551Z,81.47
2022-08-19T04:36:28.538Z,81.47
2022-08-19T04:37:35.201Z,81.47
2022-08-19T04:38:29.524Z,81.57
2022-08-19T04:39:28.492Z,81.47
2022-08-19T04:40:28.480Z,81.27
2022-08-19T04:41:28.462Z,81.17
2022-08-19T04:42:30.875Z,81.17
2022-08-19T04:43:28.432Z,81.07
2022-08-19T04:44:28.434Z,80.97
2022-08-19T04:45:28.412Z,80.97
2022-08-19T04:46:39.173Z,80.83
2022-08-19T04:47:47.015Z,80.73
2022-08-19T04:48:29.370Z,80.63
2022-08-19T04:49:28.374Z,80.52
2022-08-19T04:50:28.344Z,80.52
2022-08-19T04:51:28.332Z,80.63
2022-08-19T04:52:28.313Z,80.73
2022-08-19T04:53:28.303Z,80.97
2022-08-19T04:54:37.247Z,81.27
2022-08-19T04:55:29.280Z,81.27
2022-08-19T04:56:28.254Z,81.27
2022-08-19T04:57:28.255Z,81.27
2022-08-19T04:58:28.224Z,81.37
2022-08-19T04:59:28.244Z,81.47
2022-08-19T05:00:28.195Z,81.37
2022-08-19T05:01:28.237Z,81.37
2022-08-19T05:02:28.182Z,81.23
2022-08-19T05:03:30.564Z,81.03
2022-08-19T05:04:28.165Z,80.93
2022-08-19T05:05:28.144Z,80.83
2022-08-19T05:06:28.125Z,80.83
2022-08-19T05:07:28.114Z,80.83
2022-08-19T05:08:31.145Z,80.93
2022-08-19T05:09:28.094Z,81.13
2022-08-19T05:10:28.067Z,81.33
2022-08-19T05:11:28.068Z,81.43
2022-08-19T05:12:29.212Z,81.53
2022-08-19T05:13:28.036Z,81.63
2022-08-19T05:14:28.016Z,81.63
2022-08-19T05:15:28.006Z,81.43
2022-08-19T05:16:27.986Z,81.43
2022-08-19T05:17:31.027Z,81.43
2022-08-19T05:18:28.976Z,81.53
2022-08-19T05:19:27.949Z,81.77
2022-08-19T05:20:27.938Z,81.87
2022-08-19T05:21:27.924Z,81.84
2022-08-19T05:22:27.907Z,81.84
2022-08-19T05:23:27.911Z,81.98
2022-08-19T05:24:27.876Z,82.07
2022-08-19T05:25:27.869Z,82.07
2022-08-19T05:26:27.847Z,81.98
2022-08-19T05:27:27.839Z,81.57
2022-08-19T05:28:27.847Z,81.33
2022-08-19T05:29:27.808Z,81.23
2022-08-19T05:30:46.002Z,81.23
2022-08-19T05:31:28.760Z,81.23
2022-08-19T05:32:27.769Z,81.13
2022-08-19T05:33:27.779Z,81.03
2022-08-19T05:34:27.747Z,81.13
2022-08-19T05:35:27.737Z,81.13
2022-08-19T05:36:27.728Z,81.13
2022-08-19T05:37:27.707Z,81.23
2022-08-19T05:38:27.689Z,81.47
2022-08-19T05:39:27.690Z,81.67
2022-08-19T05:40:27.679Z,81.67
2022-08-19T05:41:27.652Z,81.77
2022-08-19T05:42:27.645Z,81.98
2022-08-19T05:43:27.618Z,82.07
2022-08-19T05:44:27.630Z,82.18
2022-08-19T05:45:27.598Z,82.28
2022-08-19T05:46:28.097Z,82.38
2022-08-19T05:47:27.568Z,82.48
2022-08-19T05:48:27.559Z,82.48
2022-08-19T05:49:27.558Z,82.38
2022-08-19T05:50:27.531Z,82.18
2022-08-19T05:51:29.319Z,82.44
2022-08-19T05:52:27.500Z,82.54
2022-08-19T05:53:27.492Z,82.64
2022-08-19T05:54:27.502Z,82.64
2022-08-19T05:55:27.461Z,82.34
2022-08-19T05:56:27.451Z,82.24
2022-08-19T05:57:27.422Z,82.14
2022-08-19T05:58:28.183Z,81.93
2022-08-19T05:59:27.429Z,82.04
2022-08-19T06:00:27.410Z,82.14
2022-08-19T06:01:27.382Z,82.24
2022-08-19T06:02:27.513Z,81.93
2022-08-19T06:03:27.352Z,81.63
2022-08-19T06:04:27.367Z,81.63
2022-08-19T06:05:27.328Z,81.73
2022-08-19T06:06:27.362Z,81.93
2022-08-19T06:07:27.320Z,81.99
2022-08-19T06:08:34.185Z,81.99
2022-08-19T06:09:28.283Z,81.99
2022-08-19T06:10:27.318Z,82.10
2022-08-19T06:11:27.240Z,82.10
2022-08-19T06:12:27.243Z,81.79
2022-08-19T06:13:27.233Z,81.79
2022-08-19T06:14:28.315Z,81.76
2022-08-19T06:15:27.183Z,81.65
2022-08-19T06:16:27.182Z,81.26
2022-08-19T06:17:27.163Z,81.26
2022-08-19T06:18:27.153Z,81.46
2022-08-19T06:19:27.143Z,81.56
2022-08-19T06:20:54.114Z,81.56
2022-08-19T06:21:28.093Z,81.56
2022-08-19T06:22:27.093Z,81.35
2022-08-19T06:23:27.074Z,81.46
2022-08-19T06:24:27.084Z,81.26
2022-08-19T06:25:30.436Z,81.26
2022-08-19T06:26:27.043Z,81.26
2022-08-19T06:27:27.025Z,81.35
2022-08-19T06:28:27.015Z,81.56
2022-08-19T06:29:27.006Z,81.56
2022-08-19T06:30:26.978Z,81.26
2022-08-19T06:31:26.973Z,81.26
2022-08-19T06:32:26.955Z,81.35
2022-08-19T06:33:26.936Z,81.56
2022-08-19T06:34:26.946Z,81.26
2022-08-19T06:35:26.916Z,81.26
2022-08-19T06:36:26.907Z,81.32
2022-08-19T06:37:26.885Z,81.21
2022-08-19T06:38:26.877Z,81.32
2022-08-19T06:39:26.875Z,81.41
2022-08-19T06:40:26.855Z,81.32
2022-08-19T06:41:26.839Z,81.41
2022-08-19T06:42:26.826Z,81.52
2022-08-19T06:43:28.054Z,81.41
2022-08-19T06:44:26.820Z,81.12
2022-08-19T06:45:35.488Z,81.12
2022-08-19T06:46:27.766Z,81.21
2022-08-19T06:47:28.579Z,81.12
2022-08-19T06:48:26.747Z,80.81
2022-08-19T06:49:26.746Z,80.81
2022-08-19T06:50:26.809Z,80.81
2022-08-19T06:51:30.255Z,80.77
2022-08-19T06:52:27.687Z,80.98
2022-08-19T06:53:26.678Z,81.07
2022-08-19T06:54:30.618Z,81.07
2022-08-19T06:55:26.648Z,81.18
2022-08-19T06:56:26.638Z,81.48
2022-08-19T06:57:26.626Z,81.18
2022-08-19T06:58:26.608Z,80.98
2022-08-19T06:59:26.620Z,80.98
2022-08-19T07:00:26.898Z,81.38
2022-08-19T07:01:26.573Z,81.27
2022-08-19T07:02:26.559Z,81.04
2022-08-19T07:03:26.549Z,80.94
2022-08-19T07:04:26.550Z,80.63
2022-08-19T07:05:26.521Z,80.74
2022-08-19T07:06:43.366Z,80.63
2022-08-19T07:07:27.478Z,80.74
2022-08-19T07:08:26.596Z,80.74
2022-08-19T07:09:26.468Z,80.63
2022-08-19T07:10:26.440Z,80.63
2022-08-19T07:11:26.445Z,80.24
2022-08-19T07:12:26.555Z,80.43
2022-08-19T07:13:26.403Z,80.83
2022-08-19T07:14:26.420Z,80.10
2022-08-19T07:15:26.376Z,80.19
2022-08-19T07:16:29.134Z,80.19
2022-08-19T07:17:26.353Z,80.50
2022-08-19T07:18:26.349Z,80.30
2022-08-19T07:19:26.362Z,79.80
2022-08-19T07:20:28.322Z,79.46
2022-08-19T07:21:26.299Z,79.16
2022-08-19T07:22:26.288Z,79.36
2022-08-19T07:23:26.292Z,79.25
2022-08-19T07:24:26.280Z,78.75
2022-08-19T07:25:31.917Z,78.55
2022-08-19T07:26:27.855Z,78.45
2022-08-19T07:27:26.233Z,78.55
2022-08-19T07:28:26.222Z,78.66
2022-08-19T07:29:28.419Z,78.52
2022-08-19T07:30:26.483Z,78.42
2022-08-19T07:31:26.182Z,78.42
2022-08-19T07:32:27.174Z,78.52
2022-08-19T07:33:27.932Z,78.31
2022-08-19T07:34:26.153Z,78.22
2022-08-19T07:35:26.121Z,77.81
2022-08-19T07:36:26.124Z,77.28
2022-08-19T07:37:30.619Z,77.28
2022-08-19T07:38:27.085Z,77.48
2022-08-19T07:39:33.244Z,77.08
2022-08-19T07:40:26.055Z,77.08
2022-08-19T07:41:26.043Z,76.67
2022-08-19T07:42:26.036Z,76.87
2022-08-19T07:43:26.026Z,76.67
2022-08-19T07:44:27.085Z,76.57
2022-08-19T07:45:25.988Z,76.67
2022-08-19T07:46:25.994Z,76.64
2022-08-19T07:47:49.333Z,76.54
2022-08-19T07:48:26.954Z,76.64
2022-08-19T07:49:26.026Z,76.43
2022-08-19T07:50:25.924Z,75.70
2022-08-19T07:51:36.551Z,75.40
2022-08-19T07:52:26.904Z,75.30
2022-08-19T07:53:25.885Z,75.40
2022-08-19T07:54:25.885Z,75.20
2022-08-19T07:55:41.943Z,74.96
2022-08-19T07:56:26.849Z,74.76
2022-08-19T07:57:25.874Z,74.96
2022-08-19T07:58:25.816Z,74.56
2022-08-19T07:59:25.867Z,74.56
2022-08-19T08:00:25.903Z,75.13
2022-08-19T08:01:25.809Z,74.83
2022-08-19T08:02:25.790Z,74.93
2022-08-19T08:03:25.747Z,75.02
2022-08-19T08:04:25.764Z,74.69
2022-08-19T08:05:25.738Z,74.69
2022-08-19T08:06:26.227Z,74.49
2022-08-19T08:07:25.695Z,74.16
2022-08-19T08:08:27.695Z,73.66
2022-08-19T08:09:25.785Z,73.36
2022-08-19T08:10:25.755Z,72.96
2022-08-19T08:11:25.648Z,72.62
2022-08-19T08:12:34.344Z,72.45
2022-08-19T08:13:26.633Z,72.56
2022-08-19T08:14:29.592Z,72.96
2022-08-19T08:15:26.588Z,72.86
2022-08-19T08:16:25.633Z,72.66
2022-08-19T08:17:46.666Z,72.66
2022-08-19T08:18:27.907Z,73.06
2022-08-19T08:19:26.008Z,72.92
2022-08-19T08:20:25.554Z,72.72
2022-08-19T08:21:25.540Z,72.62
2022-08-19T08:22:25.547Z,72.42
2022-08-19T08:23:25.530Z,72.32
2022-08-19T08:24:28.596Z,72.02
2022-08-19T08:25:25.460Z,72.02
2022-08-19T08:26:25.459Z,72.22
2022-08-19T08:27:27.065Z,72.52
2022-08-19T08:28:25.423Z,72.22
2022-08-19T08:29:25.981Z,72.13
2022-08-19T08:30:25.424Z,72.13
2022-08-19T08:31:26.380Z,71.83
2022-08-19T08:32:25.378Z,71.83
2022-08-19T08:33:34.185Z,72.22
2022-08-19T08:34:26.380Z,72.32
2022-08-19T08:35:25.329Z,72.69
2022-08-19T08:36:25.325Z,71.09
2022-08-19T08:37:25.321Z,71.49
2022-08-19T08:38:25.290Z,71.49
2022-08-19T08:39:25.291Z,71.59
2022-08-19T08:40:25.397Z,71.59
2022-08-19T08:41:25.250Z,71.39
2022-08-19T08:42:25.242Z,71.49
2022-08-19T08:43:25.222Z,71.49
2022-08-19T08:44:25.233Z,71.29
2022-08-19T08:45:25.212Z,71.36
2022-08-19T08:46:31.565Z,71.75
2022-08-19T08:47:26.169Z,71.75
2022-08-19T08:48:25.152Z,71.06
2022-08-19T08:49:25.144Z,70.36
2022-08-19T08:50:26.365Z,70.56
2022-08-19T08:51:25.157Z,71.56
2022-08-19T08:52:25.115Z,70.23
2022-08-19T08:53:29.234Z,70.23
2022-08-19T08:54:26.083Z,69.23
2022-08-19T08:55:25.073Z,69.23
2022-08-19T08:56:25.091Z,69.62
2022-08-19T08:57:25.033Z,69.23
2022-08-19T08:58:25.034Z,68.33
2022-08-19T08:59:25.033Z,68.03
2022-08-19T09:00:25.027Z,68.00
2022-08-19T09:01:25.004Z,67.10
2022-08-19T09:02:25.972Z,66.30
2022-08-19T09:03:24.963Z,66.20
2022-08-19T09:04:24.953Z,66.30
2022-08-19T09:05:26.020Z,66.50
2022-08-19T09:06:25.959Z,66.20
2022-08-19T09:07:35.343Z,66.10
2022-08-19T09:08:25.889Z,66.00
2022-08-19T09:09:24.904Z,66.07
2022-08-19T09:10:25.899Z,66.97
2022-08-19T09:11:42.573Z,64.87
2022-08-19T09:12:26.784Z,64.87
2022-08-19T09:13:24.825Z,64.04
2022-08-19T09:14:49.131Z,64.94
2022-08-19T09:15:27.798Z,63.75
2022-08-19T09:16:27.831Z,63.45
2022-08-19T09:17:24.787Z,63.05
2022-08-19T09:18:24.767Z,62.92
2022-08-19T09:19:25.738Z,62.82
2022-08-19T09:20:26.220Z,61.33
2022-08-19T09:21:30.385Z,60.93
2022-08-19T09:22:27.433Z,60.93
2022-08-19T09:23:26.656Z,61.03
2022-08-19T09:24:24.677Z,61.13
2022-08-19T09:25:26.810Z,59.94
2022-08-19T09:26:24.648Z,59.64
2022-08-19T09:27:42.493Z,60.24
2022-08-19T09:28:27.247Z,59.83
2022-08-19T09:29:24.608Z,59.34
2022-08-19T09:30:24.619Z,58.71
2022-08-19T09:31:24.592Z,58.41
2022-08-19T09:32:26.833Z,58.81
2022-08-19T09:33:24.558Z,57.92
2022-08-19T09:34:24.550Z,56.89
2022-08-19T09:35:24.569Z,56.99
2022-08-19T09:36:34.451Z,57.59
2022-08-19T09:37:25.520Z,57.89
2022-08-19T09:38:24.499Z,58.28
2022-08-19T09:39:24.500Z,56.70
2022-08-19T09:40:24.761Z,56.79
2022-08-19T09:41:24.460Z,57.59
2022-08-19T09:42:30.350Z,57.39
2022-08-19T09:43:31.108Z,56.89
2022-08-19T09:44:25.399Z,57.49
2022-08-19T09:45:24.438Z,57.69
2022-08-19T09:46:24.400Z,58.09
2022-08-19T09:47:24.384Z,58.39
2022-08-19T09:48:24.352Z,56.79
2022-08-19T09:49:24.540Z,57.76
2022-08-19T09:50:24.343Z,56.87
2022-08-19T09:51:24.323Z,56.30
2022-08-19T09:52:24.302Z,56.96
2022-08-19T09:53:25.578Z,58.36
2022-08-19T09:54:25.055Z,57.66
2022-08-19T09:55:24.294Z,57.53
2022-08-19T09:56:24.553Z,57.64
2022-08-19T09:57:24.252Z,57.53
2022-08-19T09:58:26.667Z,56.14
2022-08-19T09:59:24.229Z,55.74
2022-08-19T10:00:24.222Z,56.71
2022-08-19T10:01:24.335Z,55.52
2022-08-19T10:02:24.173Z,56.02
2022-08-19T10:03:25.505Z,55.32
2022-08-19T10:04:25.356Z,55.12
2022-08-19T10:05:26.911Z,54.53
2022-08-19T10:06:46.253Z,55.02
2022-08-19T10:07:28.942Z,56.32
2022-08-19T10:08:26.556Z,55.02
2022-08-19T10:09:33.558Z,55.02
2022-08-19T10:10:25.078Z,55.72
2022-08-19T10:11:28.725Z,55.72
2022-08-19T10:12:25.062Z,55.79
2022-08-19T10:13:24.042Z,54.00
2022-08-19T10:14:24.007Z,54.90
2022-08-19T10:15:28.955Z,54.50
2022-08-19T10:16:25.956Z,54.00
2022-08-19T10:17:26.787Z,54.00
2022-08-19T10:18:24.984Z,54.21
2022-08-19T10:19:25.666Z,54.50
2022-08-19T10:20:23.954Z,54.40
2022-08-19T10:21:23.948Z,54.10
2022-08-19T10:22:23.966Z,54.70
2022-08-19T10:23:23.899Z,55.00
2022-08-19T10:24:23.901Z,54.21
2022-08-19T10:25:23.895Z,54.30
2022-08-19T10:26:23.862Z,54.00
2022-08-19T10:27:23.869Z,54.13
2022-08-19T10:28:23.839Z,54.43
2022-08-19T10:29:32.843Z,53.23
2022-08-19T10:30:24.955Z,53.53
2022-08-19T10:32:01.077Z,53.53
2022-08-19T10:32:33.839Z,53.23
2022-08-19T10:33:39.044Z,53.53
2022-08-19T10:34:27.794Z,55.10
2022-08-19T10:35:23.738Z,54.50
2022-08-19T10:36:23.790Z,54.30
2022-08-19T10:37:29.037Z,54.23
2022-08-19T10:38:31.512Z,53.31
2022-08-19T10:39:24.698Z,53.11
2022-08-19T10:40:24.775Z,53.91
2022-08-19T10:41:23.659Z,52.61
2022-08-19T10:42:23.691Z,53.78
2022-08-19T10:43:23.670Z,51.40
2022-08-19T10:44:23.631Z,51.70
2022-08-19T10:45:23.611Z,51.79
2022-08-19T10:46:23.602Z,52.37
2022-08-19T10:47:25.940Z,53.06
2022-08-19T10:48:23.571Z,52.26
2022-08-19T10:49:23.568Z,51.37
2022-08-19T10:50:28.715Z,52.66
2022-08-19T10:51:24.544Z,52.84
2022-08-19T10:52:27.242Z,51.84
2022-08-19T10:53:24.511Z,51.65
2022-08-19T10:54:31.226Z,51.94
2022-08-19T10:55:24.483Z,52.71
2022-08-19T10:56:23.473Z,51.62
2022-08-19T10:57:23.483Z,50.53
2022-08-19T10:58:23.443Z,50.53
2022-08-19T10:59:26.770Z,50.73
2022-08-19T11:00:23.415Z,51.42
2022-08-19T11:01:23.441Z,49.64
2022-08-19T11:02:23.385Z,50.41
2022-08-19T11:03:23.397Z,51.00
2022-08-19T11:04:23.386Z,50.11
2022-08-19T11:05:24.628Z,49.71
2022-08-19T11:06:23.344Z,48.53
2022-08-19T11:07:23.328Z,49.79
2022-08-19T11:08:24.176Z,47.74
2022-08-19T11:09:23.325Z,48.50
2022-08-19T11:10:23.329Z,48.40
2022-08-19T11:11:23.290Z,49.19
2022-08-19T11:12:23.304Z,48.90
2022-08-19T11:13:23.275Z,49.00
2022-08-19T11:14:23.236Z,48.90
2022-08-19T11:15:23.227Z,48.60
2022-08-19T11:16:23.224Z,49.00
2022-08-19T11:17:23.198Z,49.00
2022-08-19T11:18:23.207Z,50.68
2022-08-19T11:19:23.190Z,50.58
2022-08-19T11:20:23.157Z,48.21
2022-08-19T11:21:23.156Z,48.90
2022-08-19T11:22:23.198Z,49.40
2022-08-19T11:23:23.147Z,49.52
2022-08-19T11:24:23.117Z,50.01
2022-08-19T11:25:23.110Z,49.24
2022-08-19T11:26:23.078Z,48.94
2022-08-19T11:27:23.080Z,49.07
2022-08-19T11:28:23.098Z,49.15
2022-08-19T11:29:23.062Z,48.25
2022-08-19T11:30:23.061Z,48.94
2022-08-19T11:31:23.019Z,48.13
2022-08-19T11:32:23.009Z,48.35
2022-08-19T11:33:23.024Z,48.65
2022-08-19T11:34:22.989Z,48.85
2022-08-19T11:35:22.970Z,49.57
2022-08-19T11:36:22.950Z,49.34
2022-08-19T11:37:22.931Z,49.66
2022-08-19T11:38:22.999Z,49.07
2022-08-19T11:39:22.930Z,48.97
2022-08-19T11:40:23.011Z,49.57
2022-08-19T11:41:22.891Z,48.85
2022-08-19T11:42:22.882Z,49.66
2022-08-19T11:43:22.901Z,49.27
2022-08-19T11:44:22.841Z,49.84
2022-08-19T11:45:22.841Z,48.94
2022-08-19T11:46:22.851Z,49.32
2022-08-19T11:47:22.813Z,48.92
2022-08-19T11:48:22.821Z,49.81
2022-08-19T11:49:22.796Z,49.79
2022-08-19T11:50:22.769Z,49.10
2022-08-19T11:51:22.762Z,48.90
2022-08-19T11:52:22.760Z,49.19
2022-08-19T11:53:22.772Z,48.50
2022-08-19T11:54:22.723Z,48.70
2022-08-19T11:55:22.712Z,48.21
2022-08-19T11:56:22.683Z,47.49
2022-08-19T11:57:22.683Z,47.49
2022-08-19T11:58:22.697Z,48.77
2022-08-19T11:59:22.664Z,47.09
2022-08-19T12:00:22.653Z,47.89
2022-08-19T12:01:22.637Z,47.96
2022-08-19T12:02:22.616Z,46.30
2022-08-19T12:03:22.619Z,46.92
2022-08-19T12:04:22.616Z,47.41
2022-08-19T12:05:22.592Z,47.31
2022-08-19T12:06:22.557Z,46.82
2022-08-19T12:07:22.571Z,46.82
2022-08-19T12:08:22.552Z,46.01
2022-08-19T12:09:22.557Z,45.61
2022-08-19T12:10:26.272Z,45.51
2022-08-19T12:11:22.496Z,45.12
2022-08-19T12:12:22.582Z,45.31
2022-08-19T12:13:22.467Z,45.79
2022-08-19T12:14:22.480Z,45.79
2022-08-19T12:15:22.453Z,44.50
2022-08-19T12:16:22.427Z,43.49
2022-08-19T12:17:22.430Z,43.88
2022-08-19T12:18:22.411Z,44.48
2022-08-19T12:19:22.846Z,43.98
2022-08-19T12:20:22.381Z,43.57
2022-08-19T12:21:22.358Z,44.16
2022-08-19T12:22:22.385Z,44.16
2022-08-19T12:23:22.328Z,44.46
2022-08-19T12:24:22.361Z,42.99
2022-08-19T12:25:22.329Z,42.92
2022-08-19T12:26:22.298Z,42.82
2022-08-19T12:27:29.043Z,43.61
2022-08-19T12:28:23.265Z,43.31
2022-08-19T12:29:24.042Z,44.20
2022-08-19T12:30:22.249Z,44.48
2022-08-19T12:31:22.230Z,43.88
2022-08-19T12:32:22.238Z,44.95
2022-08-19T12:33:22.201Z,44.95
2022-08-19T12:34:22.195Z,44.64
2022-08-19T12:35:22.231Z,44.93
2022-08-19T12:36:22.160Z,44.43
2022-08-19T12:37:22.169Z,44.91
2022-08-19T12:38:22.122Z,45.10
2022-08-19T12:39:22.122Z,44.54
2022-08-19T12:40:22.110Z,44.64
2022-08-19T12:41:22.102Z,44.14
2022-08-19T12:42:22.098Z,43.65
2022-08-19T12:43:22.071Z,45.35
2022-08-19T12:44:28.919Z,46.36
2022-08-19T12:45:23.059Z,46.55
2022-08-19T12:46:22.287Z,47.44
2022-08-19T12:47:22.032Z,46.85
2022-08-19T12:48:31.373Z,46.55
2022-08-19T12:49:52.553Z,46.75
2022-08-19T12:50:22.964Z,47.54
2022-08-19T12:51:21.953Z,46.36
2022-08-19T12:52:22.986Z,46.55